sensor_id;sensor_type;location;lat;lon;timestamp;pressure;altitude;pressure_sealevel;temperature;humidity
61119;BME280;51448;51.660;5.824;2023-02-13T00:01:13;103613.44;;;6.76;100.00
61119;BME280;51448;51.660;5.824;2023-02-13T00:03:41;103610.81;;;6.76;100.00
61119;BME280;51448;51.660;5.824;2023-02-13T00:06:09;103607.44;;;6.79;100.00
61119;BME280;51448;51.660;5.824;2023-02-13T00:08:37;103607.44;;;6.79;100.00
61119;BME280;51448;51.660;5.824;2023-02-13T00:11:05;103605.69;;;6.79;100.00
61119;BME280;51448;51.660;5.824;2023-02-13T00:13:33;103598.66;;;6.78;100.00
61119;BME280;51448;51.660;5.824;2023-02-13T00:16:03;103608.31;;;6.79;100.00
61119;BME280;51448;51.660;5.824;2023-02-13T00:18:36;103607.47;;;6.80;100.00
61119;BME280;51448;51.660;5.824;2023-02-13T00:21:12;103600.47;;;6.79;100.00
61119;BME280;51448;51.660;5.824;2023-02-13T00:23:40;103604.75;;;6.77;100.00
61119;BME280;51448;51.660;5.824;2023-02-13T00:26:10;103597.75;;;6.76;100.00
61119;BME280;51448;51.660;5.824;2023-02-13T00:28:44;103596.81;;;6.74;100.00
61119;BME280;51448;51.660;5.824;2023-02-13T00:31:14;103600.34;;;6.75;100.00
61119;BME280;51448;51.660;5.824;2023-02-13T00:33:47;103597.66;;;6.73;100.00
61119;BME280;51448;51.660;5.824;2023-02-13T00:36:17;103598.47;;;6.72;100.00
61119;BME280;51448;51.660;5.824;2023-02-13T00:38:47;103595.88;;;6.72;100.00
61119;BME280;51448;51.660;5.824;2023-02-13T00:41:16;103601.09;;;6.72;100.00
61119;BME280;51448;51.660;5.824;2023-02-13T00:43:44;103600.28;;;6.73;100.00
61119;BME280;51448;51.660;5.824;2023-02-13T00:46:14;103597.66;;;6.73;100.00
61119;BME280;51448;51.660;5.824;2023-02-13T00:48:44;103602.88;;;6.73;100.00
61119;BME280;51448;51.660;5.824;2023-02-13T00:51:12;103594.97;;;6.72;100.00
61119;BME280;51448;51.660;5.824;2023-02-13T00:53:40;103596.78;;;6.73;100.00
61119;BME280;51448;51.660;5.824;2023-02-13T00:56:07;103598.47;;;6.72;100.00
61119;BME280;51448;51.660;5.824;2023-02-13T00:58:37;103595.03;;;6.73;100.00
61119;BME280;51448;51.660;5.824;2023-02-13T01:01:06;103600.22;;;6.72;100.00
61119;BME280;51448;51.660;5.824;2023-02-13T01:03:34;103593.25;;;6.72;100.00
61119;BME280;51448;51.660;5.824;2023-02-13T01:06:02;103599.38;;;6.73;100.00
61119;BME280;51448;51.660;5.824;2023-02-13T01:08:31;103600.22;;;6.72;100.00
61119;BME280;51448;51.660;5.824;2023-02-13T01:10:59;103606.31;;;6.72;100.00
61119;BME280;51448;51.660;5.824;2023-02-13T01:13:27;103596.78;;;6.73;100.00
61119;BME280;51448;51.660;5.824;2023-02-13T01:15:55;103599.41;;;6.74;100.00
61119;BME280;51448;51.660;5.824;2023-02-13T01:18:23;103604.63;;;6.73;100.00
61119;BME280;51448;51.660;5.824;2023-02-13T01:21:05;103602.03;;;6.74;100.00
61119;BME280;51448;51.660;5.824;2023-02-13T01:23:36;103601.16;;;6.74;100.00
61119;BME280;51448;51.660;5.824;2023-02-13T01:26:07;103596.78;;;6.73;100.00
61119;BME280;51448;51.660;5.824;2023-02-13T01:28:37;103599.38;;;6.73;100.00
61119;BME280;51448;51.660;5.824;2023-02-13T01:31:05;103604.56;;;6.71;100.00
61119;BME280;51448;51.660;5.824;2023-02-13T01:33:33;103604.63;;;6.73;100.00
61119;BME280;51448;51.660;5.824;2023-02-13T01:36:07;103602.88;;;6.73;100.00
61119;BME280;51448;51.660;5.824;2023-02-13T01:38:37;103601.94;;;6.71;100.00
61119;BME280;51448;51.660;5.824;2023-02-13T01:41:06;103594.97;;;6.72;100.00
61119;BME280;51448;51.660;5.824;2023-02-13T01:43:54;103602.88;;;6.73;100.00
61119;BME280;51448;51.660;5.824;2023-02-13T01:49:18;103600.34;;;6.75;100.00
61119;BME280;51448;51.660;5.824;2023-02-13T01:51:53;103594.09;;;6.71;100.00
61119;BME280;51448;51.660;5.824;2023-02-13T01:54:26;103599.34;;;6.71;100.00
61119;BME280;51448;51.660;5.824;2023-02-13T01:57:08;103593.22;;;6.71;100.00
61119;BME280;51448;51.660;5.824;2023-02-13T01:59:49;103595.78;;;6.69;100.00
61119;BME280;51448;51.660;5.824;2023-02-13T02:02:19;103588.81;;;6.70;100.00
61119;BME280;51448;51.660;5.824;2023-02-13T02:04:49;103588.88;;;6.71;100.00
61119;BME280;51448;51.660;5.824;2023-02-13T02:07:24;103583.63;;;6.71;100.00
61119;BME280;51448;51.660;5.824;2023-02-13T02:10:06;103580.03;;;6.68;100.00
61119;BME280;51448;51.660;5.824;2023-02-13T02:15:19;103572.09;;;6.64;100.00
61119;BME280;51448;51.660;5.824;2023-02-13T02:17:47;103568.56;;;6.64;100.00
61119;BME280;51448;51.660;5.824;2023-02-13T02:35:47;103572.09;;;6.64;100.00
61119;BME280;51448;51.660;5.824;2023-02-13T02:38:58;103565.97;;;6.64;100.00
61119;BME280;51448;51.660;5.824;2023-02-13T02:41:53;103572.88;;;6.62;100.00
61119;BME280;51448;51.660;5.824;2023-02-13T02:50:25;103563.06;;;6.55;100.00
61119;BME280;51448;51.660;5.824;2023-02-13T02:58:58;103565.56;;;6.52;100.00
61119;BME280;51448;51.660;5.824;2023-02-13T03:01:50;103565.47;;;6.49;100.00
61119;BME280;51448;51.660;5.824;2023-02-13T03:05:02;103563.69;;;6.48;100.00
61119;BME280;51448;51.660;5.824;2023-02-13T03:07:48;103574.06;;;6.44;100.00
61119;BME280;51448;51.660;5.824;2023-02-13T03:10:25;103563.59;;;6.44;100.00
61119;BME280;51448;51.660;5.824;2023-02-13T03:13:36;103567.03;;;6.43;100.00
61119;BME280;51448;51.660;5.824;2023-02-13T03:16:16;103568.69;;;6.40;100.00
61119;BME280;51448;51.660;5.824;2023-02-13T03:25:28;103563.09;;;6.29;100.00
61119;BME280;51448;51.660;5.824;2023-02-13T03:28:21;103561.31;;;6.28;100.00
61119;BME280;51448;51.660;5.824;2023-02-13T03:31:57;103556.72;;;6.21;100.00
61119;BME280;51448;51.660;5.824;2023-02-13T03:34:12;103554.84;;;6.17;100.00
61119;BME280;51448;51.660;5.824;2023-02-13T03:36:58;103556.50;;;6.15;100.00
61119;BME280;51448;51.660;5.824;2023-02-13T03:40:56;103554.69;;;6.12;100.00
61119;BME280;51448;51.660;5.824;2023-02-13T03:43:31;103561.22;;;5.99;100.00
61119;BME280;51448;51.660;5.824;2023-02-13T03:46:09;103570.72;;;5.97;100.00
61119;BME280;51448;51.660;5.824;2023-02-13T03:48:39;103561.94;;;5.95;100.00
61119;BME280;51448;51.660;5.824;2023-02-13T03:51:38;103562.59;;;5.90;100.00
61119;BME280;51448;51.660;5.824;2023-02-13T03:57:14;103563.81;;;5.75;100.00
61119;BME280;51448;51.660;5.824;2023-02-13T04:00:09;103569.69;;;5.70;100.00
61119;BME280;51448;51.660;5.824;2023-02-13T04:02:59;103570.50;;;5.67;100.00
61119;BME280;51448;51.660;5.824;2023-02-13T04:05:40;103572.94;;;5.62;100.00
61119;BME280;51448;51.660;5.824;2023-02-13T04:08:13;103570.22;;;5.59;100.00
61119;BME280;51448;51.660;5.824;2023-02-13T04:11:05;103566.72;;;5.59;100.00
61119;BME280;51448;51.660;5.824;2023-02-13T04:13:42;103562.28;;;5.56;100.00
61119;BME280;51448;51.660;5.824;2023-02-13T04:16:32;103573.50;;;5.54;100.00
61119;BME280;51448;51.660;5.824;2023-02-13T04:19:01;103571.56;;;5.48;100.00
61119;BME280;51448;51.660;5.824;2023-02-13T04:21:33;103576.63;;;5.45;100.00
61119;BME280;51448;51.660;5.824;2023-02-13T04:24:03;103568.72;;;5.42;100.00
61119;BME280;51448;51.660;5.824;2023-02-13T04:26:37;103568.59;;;5.39;100.00
61119;BME280;51448;51.660;5.824;2023-02-13T04:29:08;103573.63;;;5.34;100.00
61119;BME280;51448;51.660;5.824;2023-02-13T04:31:36;103572.63;;;5.31;100.00
61119;BME280;51448;51.660;5.824;2023-02-13T04:34:04;103571.59;;;5.26;100.00
61119;BME280;51448;51.660;5.824;2023-02-13T04:36:32;103572.22;;;5.20;100.00
61119;BME280;51448;51.660;5.824;2023-02-13T04:39:00;103575.56;;;5.16;100.00
61119;BME280;51448;51.660;5.824;2023-02-13T04:41:27;103566.78;;;5.14;100.00
61119;BME280;51448;51.660;5.824;2023-02-13T04:43:55;103570.97;;;5.10;100.00
61119;BME280;51448;51.660;5.824;2023-02-13T04:46:23;103566.47;;;5.06;100.00
61119;BME280;51448;51.660;5.824;2023-02-13T04:48:50;103565.44;;;5.01;100.00
61119;BME280;51448;51.660;5.824;2023-02-13T04:51:18;103564.41;;;4.97;100.00
61119;BME280;51448;51.660;5.824;2023-02-13T04:53:46;103560.78;;;4.94;100.00
61119;BME280;51448;51.660;5.824;2023-02-13T04:56:13;103554.59;;;4.90;100.00
61119;BME280;51448;51.660;5.824;2023-02-13T04:58:41;103553.50;;;4.85;100.00
61119;BME280;51448;51.660;5.824;2023-02-13T05:01:15;103552.47;;;4.81;100.00
61119;BME280;51448;51.660;5.824;2023-02-13T05:03:44;103548.81;;;4.76;100.00
61119;BME280;51448;51.660;5.824;2023-02-13T05:06:11;103546.06;;;4.73;100.00
61119;BME280;51448;51.660;5.824;2023-02-13T05:08:39;103547.69;;;4.70;100.00
61119;BME280;51448;51.660;5.824;2023-02-13T05:11:07;103545.03;;;4.68;100.00
61119;BME280;51448;51.660;5.824;2023-02-13T05:13:34;103545.91;;;4.69;100.00
61119;BME280;51448;51.660;5.824;2023-02-13T05:16:02;103546.69;;;4.66;100.00
61119;BME280;51448;51.660;5.824;2023-02-13T05:18:30;103551.00;;;4.66;100.00
61119;BME280;51448;51.660;5.824;2023-02-13T05:20:57;103549.16;;;4.63;100.00
61119;BME280;51448;51.660;5.824;2023-02-13T05:23:43;103553.38;;;4.59;100.00
61119;BME280;51448;51.660;5.824;2023-02-13T05:26:11;103548.97;;;4.58;100.00
61119;BME280;51448;51.660;5.824;2023-02-13T05:28:39;103545.41;;;4.56;100.00
61119;BME280;51448;51.660;5.824;2023-02-13T05:31:25;103547.06;;;4.54;100.00
61119;BME280;51448;51.660;5.824;2023-02-13T05:33:53;103550.56;;;4.55;100.00
61119;BME280;51448;51.660;5.824;2023-02-13T05:36:20;103541.78;;;4.53;100.00
61119;BME280;51448;51.660;5.824;2023-02-13T05:38:48;103548.63;;;4.49;100.00
61119;BME280;51448;51.660;5.824;2023-02-13T05:41:15;103542.47;;;4.47;100.00
61119;BME280;51448;51.660;5.824;2023-02-13T05:43:43;103538.81;;;4.43;100.00
61119;BME280;51448;51.660;5.824;2023-02-13T05:46:11;103543.00;;;4.40;100.00
61119;BME280;51448;51.660;5.824;2023-02-13T05:48:39;103538.56;;;4.37;100.00
61119;BME280;51448;51.660;5.824;2023-02-13T05:51:07;103539.34;;;4.35;100.00
61119;BME280;51448;51.660;5.824;2023-02-13T05:53:34;103532.16;;;4.29;100.00
61119;BME280;51448;51.660;5.824;2023-02-13T05:56:04;103531.97;;;4.25;100.00
61119;BME280;51448;51.660;5.824;2023-02-13T05:58:33;103533.56;;;4.21;100.00
61119;BME280;51448;51.660;5.824;2023-02-13T06:01:01;103536.03;;;4.18;100.00
61119;BME280;51448;51.660;5.824;2023-02-13T06:03:30;103534.13;;;4.14;100.00
61119;BME280;51448;51.660;5.824;2023-02-13T06:05:59;103539.22;;;4.11;100.00
61119;BME280;51448;51.660;5.824;2023-02-13T06:08:27;103542.50;;;4.07;100.00
61119;BME280;51448;51.660;5.824;2023-02-13T06:10:55;103548.50;;;4.04;100.00
61119;BME280;51448;51.660;5.824;2023-02-13T06:13:22;103550.06;;;4.00;100.00
61119;BME280;51448;51.660;5.824;2023-02-13T06:15:51;103540.41;;;3.98;100.00
61119;BME280;51448;51.660;5.824;2023-02-13T06:18:19;103546.31;;;3.94;100.00
61119;BME280;51448;51.660;5.824;2023-02-13T06:20:47;103539.13;;;3.88;100.00
61119;BME280;51448;51.660;5.824;2023-02-13T06:23:16;103536.38;;;3.85;100.00
61119;BME280;51448;51.660;5.824;2023-02-13T06:25:43;103533.50;;;3.79;100.00
61119;BME280;51448;51.660;5.824;2023-02-13T06:28:11;103535.84;;;3.73;100.00
61119;BME280;51448;51.660;5.824;2023-02-13T06:30:39;103540.84;;;3.68;100.00
61119;BME280;51448;51.660;5.824;2023-02-13T06:33:06;103531.97;;;3.63;100.00
61119;BME280;51448;51.660;5.824;2023-02-13T06:35:34;103545.59;;;3.57;100.00
61119;BME280;51448;51.660;5.824;2023-02-13T06:38:02;103545.41;;;3.53;100.00
61119;BME280;51448;51.660;5.824;2023-02-13T06:40:29;103544.28;;;3.48;100.00
61119;BME280;51448;51.660;5.824;2023-02-13T06:42:57;103546.69;;;3.43;100.00
61119;BME280;51448;51.660;5.824;2023-02-13T06:45:25;103551.69;;;3.38;100.00
61119;BME280;51448;51.660;5.824;2023-02-13T06:47:52;103551.47;;;3.34;100.00
61119;BME280;51448;51.660;5.824;2023-02-13T06:50:20;103550.47;;;3.30;100.00
61119;BME280;51448;51.660;5.824;2023-02-13T06:52:49;103551.19;;;3.28;100.00
61119;BME280;51448;51.660;5.824;2023-02-13T06:55:18;103542.38;;;3.24;100.00
61119;BME280;51448;51.660;5.824;2023-02-13T06:57:49;103541.25;;;3.19;100.00
61119;BME280;51448;51.660;5.824;2023-02-13T07:00:17;103551.59;;;3.17;100.00
61119;BME280;51448;51.660;5.824;2023-02-13T07:02:46;103552.44;;;3.16;100.00
61119;BME280;51448;51.660;5.824;2023-02-13T07:05:14;103554.16;;;3.16;100.00
61119;BME280;51448;51.660;5.824;2023-02-13T07:07:42;103550.63;;;3.15;100.00
61119;BME280;51448;51.660;5.824;2023-02-13T07:10:12;103548.03;;;3.15;100.00
61119;BME280;51448;51.660;5.824;2023-02-13T07:12:41;103554.94;;;3.15;100.00
61119;BME280;51448;51.660;5.824;2023-02-13T07:15:12;103560.22;;;3.16;100.00
61119;BME280;51448;51.660;5.824;2023-02-13T07:17:40;103559.38;;;3.17;100.00
61119;BME280;51448;51.660;5.824;2023-02-13T07:20:08;103572.47;;;3.19;100.00
61119;BME280;51448;51.660;5.824;2023-02-13T07:22:36;103572.47;;;3.19;100.00
61119;BME280;51448;51.660;5.824;2023-02-13T07:25:03;103573.44;;;3.21;100.00
61119;BME280;51448;51.660;5.824;2023-02-13T07:27:31;103574.31;;;3.21;100.00
61119;BME280;51448;51.660;5.824;2023-02-13T07:29:59;103584.72;;;3.21;100.00
61119;BME280;51448;51.660;5.824;2023-02-13T07:32:26;103582.13;;;3.21;100.00
61119;BME280;51448;51.660;5.824;2023-02-13T07:34:54;103589.94;;;3.21;100.00
61119;BME280;51448;51.660;5.824;2023-02-13T07:37:29;103577.75;;;3.20;100.00
61119;BME280;51448;51.660;5.824;2023-02-13T07:39:58;103582.97;;;3.20;100.00
61119;BME280;51448;51.660;5.824;2023-02-13T07:42:26;103583.84;;;3.21;100.00
61119;BME280;51448;51.660;5.824;2023-02-13T07:44:53;103582.28;;;3.25;100.00
61119;BME280;51448;51.660;5.824;2023-02-13T07:47:21;103588.44;;;3.27;100.00
61119;BME280;51448;51.660;5.824;2023-02-13T07:49:49;103590.28;;;3.29;100.00
61119;BME280;51448;51.660;5.824;2023-02-13T07:52:16;103583.38;;;3.30;100.00
61119;BME280;51448;51.660;5.824;2023-02-13T07:54:44;103582.47;;;3.29;100.00
61119;BME280;51448;51.660;5.824;2023-02-13T07:57:15;103586.88;;;3.30;100.00
61119;BME280;51448;51.660;5.824;2023-02-13T07:59:44;103583.53;;;3.33;100.00
61119;BME280;51448;51.660;5.824;2023-02-13T08:02:12;103583.66;;;3.36;100.00
61119;BME280;51448;51.660;5.824;2023-02-13T08:04:42;103581.31;;;3.42;100.00
61119;BME280;51448;51.660;5.824;2023-02-13T08:07:13;103591.22;;;3.49;100.00
61119;BME280;51448;51.660;5.824;2023-02-13T08:09:44;103588.19;;;3.59;100.00
61119;BME280;51448;51.660;5.824;2023-02-13T08:12:34;103585.19;;;3.70;100.00
61119;BME280;51448;51.660;5.824;2023-02-13T08:15:02;103591.63;;;3.78;100.00
61119;BME280;51448;51.660;5.824;2023-02-13T08:17:30;103585.13;;;3.88;100.00
61119;BME280;51448;51.660;5.824;2023-02-13T08:19:58;103584.53;;;3.95;100.00
61119;BME280;51448;51.660;5.824;2023-02-13T08:22:26;103591.81;;;4.02;100.00
61119;BME280;51448;51.660;5.824;2023-02-13T08:24:53;103592.13;;;4.10;100.00
61119;BME280;51448;51.660;5.824;2023-02-13T08:27:21;103594.25;;;4.18;100.00
61119;BME280;51448;51.660;5.824;2023-02-13T08:29:49;103597.22;;;4.28;100.00
61119;BME280;51448;51.660;5.824;2023-02-13T08:32:17;103598.50;;;4.37;100.00
61119;BME280;51448;51.660;5.824;2023-02-13T08:34:51;103597.13;;;4.46;100.00
61119;BME280;51448;51.660;5.824;2023-02-13T08:37:18;103613.13;;;4.55;100.00
61119;BME280;51448;51.660;5.824;2023-02-13T08:39:46;103607.34;;;4.62;100.00
61119;BME280;51448;51.660;5.824;2023-02-13T08:42:14;103609.44;;;4.71;100.00
61119;BME280;51448;51.660;5.824;2023-02-13T08:44:43;103615.06;;;4.81;100.00
61119;BME280;51448;51.660;5.824;2023-02-13T08:47:11;103613.66;;;4.90;100.00
61119;BME280;51448;51.660;5.824;2023-02-13T08:49:38;103614.91;;;4.99;100.00
61119;BME280;51448;51.660;5.824;2023-02-13T08:52:06;103623.06;;;5.07;100.00
61119;BME280;51448;51.660;5.824;2023-02-13T08:54:33;103611.19;;;5.15;100.00
61119;BME280;51448;51.660;5.824;2023-02-13T08:57:02;103611.69;;;5.28;100.00
61119;BME280;51448;51.660;5.824;2023-02-13T08:59:30;103616.41;;;5.38;100.00
61119;BME280;51448;51.660;5.824;2023-02-13T09:01:58;103612.44;;;5.48;100.00
61119;BME280;51448;51.660;5.824;2023-02-13T09:04:26;103617.16;;;5.58;100.00
61119;BME280;51448;51.660;5.824;2023-02-13T09:06:54;103619.31;;;5.70;100.00
61119;BME280;51448;51.660;5.824;2023-02-13T09:09:22;103614.50;;;5.80;100.00
61119;BME280;51448;51.660;5.824;2023-02-13T09:11:49;103612.22;;;5.90;100.00
61119;BME280;51448;51.660;5.824;2023-02-13T09:14:18;103613.47;;;5.99;100.00
61119;BME280;51448;51.660;5.824;2023-02-13T09:16:46;103620.88;;;6.11;100.00
61119;BME280;51448;51.660;5.824;2023-02-13T09:19:13;103620.38;;;6.23;100.00
61119;BME280;51448;51.660;5.824;2023-02-13T09:21:41;103620.78;;;6.34;100.00
61119;BME280;51448;51.660;5.824;2023-02-13T09:24:09;103615.09;;;6.47;100.00
61119;BME280;51448;51.660;5.824;2023-02-13T09:26:37;103611.06;;;6.57;100.00
61119;BME280;51448;51.660;5.824;2023-02-13T09:29:05;103614.91;;;6.68;100.00
61119;BME280;51448;51.660;5.824;2023-02-13T09:31:33;103619.56;;;6.77;100.00
61119;BME280;51448;51.660;5.824;2023-02-13T09:34:00;103619.91;;;6.88;100.00
61119;BME280;51448;51.660;5.824;2023-02-13T09:36:28;103622.81;;;6.97;100.00
61119;BME280;51448;51.660;5.824;2023-02-13T09:38:56;103617.81;;;7.04;100.00
61119;BME280;51448;51.660;5.824;2023-02-13T09:41:28;103617.13;;;7.10;100.00
61119;BME280;51448;51.660;5.824;2023-02-13T09:44:14;103620.13;;;7.22;100.00
61119;BME280;51448;51.660;5.824;2023-02-13T09:47:04;103624.69;;;7.30;100.00
61119;BME280;51448;51.660;5.824;2023-02-13T09:49:46;103620.50;;;7.35;100.00
61119;BME280;51448;51.660;5.824;2023-02-13T09:52:19;103618.94;;;7.41;100.00
61119;BME280;51448;51.660;5.824;2023-02-13T09:54:46;103623.53;;;7.50;100.00
61119;BME280;51448;51.660;5.824;2023-02-13T09:57:24;103616.84;;;7.60;100.00
61119;BME280;51448;51.660;5.824;2023-02-13T10:08:44;103613.34;;;7.91;100.00
61119;BME280;51448;51.660;5.824;2023-02-13T10:14:17;103622.41;;;8.02;100.00
61119;BME280;51448;51.660;5.824;2023-02-13T10:17:04;103617.41;;;8.12;100.00
61119;BME280;51448;51.660;5.824;2023-02-13T10:19:48;103615.03;;;8.21;100.00
61119;BME280;51448;51.660;5.824;2023-02-13T10:22:42;103612.72;;;8.33;100.00
61119;BME280;51448;51.660;5.824;2023-02-13T10:25:26;103615.59;;;8.41;100.00
61119;BME280;51448;51.660;5.824;2023-02-13T10:28:13;103611.53;;;8.54;100.00
61119;BME280;51448;51.660;5.824;2023-02-13T10:30:52;103623.09;;;8.62;100.00
61119;BME280;51448;51.660;5.824;2023-02-13T10:33:30;103618.94;;;8.70;100.00
61119;BME280;51448;51.660;5.824;2023-02-13T10:36:20;103617.28;;;8.75;100.00
61119;BME280;51448;51.660;5.824;2023-02-13T10:41:56;103609.00;;;8.95;100.00
61119;BME280;51448;51.660;5.824;2023-02-13T10:44:56;103611.06;;;9.08;100.00
61119;BME280;51448;51.660;5.824;2023-02-13T10:47:49;103604.22;;;9.16;100.00
61119;BME280;51448;51.660;5.824;2023-02-13T10:53:46;103604.66;;;9.36;100.00
61119;BME280;51448;51.660;5.824;2023-02-13T10:56:50;103609.22;;;9.43;100.00
61119;BME280;51448;51.660;5.824;2023-02-13T11:04:52;103598.13;;;9.58;100.00
61119;BME280;51448;51.660;5.824;2023-02-13T11:07:25;103593.00;;;9.64;100.00
61119;BME280;51448;51.660;5.824;2023-02-13T11:10:00;103588.78;;;9.73;100.00
61119;BME280;51448;51.660;5.824;2023-02-13T11:12:39;103593.28;;;9.80;100.00
61119;BME280;51448;51.660;5.824;2023-02-13T11:15:22;103591.75;;;9.91;99.71
61119;BME280;51448;51.660;5.824;2023-02-13T11:18:02;103584.03;;;10.00;100.00
61119;BME280;51448;51.660;5.824;2023-02-13T11:20:42;103588.56;;;10.07;99.18
61119;BME280;51448;51.660;5.824;2023-02-13T11:28:37;103571.44;;;10.31;98.62
61119;BME280;51448;51.660;5.824;2023-02-13T11:31:25;103566.38;;;10.42;97.71
61119;BME280;51448;51.660;5.824;2023-02-13T11:33:54;103565.59;;;10.49;97.83
61119;BME280;51448;51.660;5.824;2023-02-13T11:36:28;103559.59;;;10.58;97.46
61119;BME280;51448;51.660;5.824;2023-02-13T11:39:01;103553.53;;;10.63;96.99
61119;BME280;51448;51.660;5.824;2023-02-13T11:41:36;103551.03;;;10.71;96.37
61119;BME280;51448;51.660;5.824;2023-02-13T11:44:24;103552.06;;;10.81;96.36
61119;BME280;51448;51.660;5.824;2023-02-13T11:46:57;103548.59;;;10.85;96.06
61119;BME280;51448;51.660;5.824;2023-02-13T11:49:29;103542.53;;;10.91;94.57
61119;BME280;51448;51.660;5.824;2023-02-13T11:52:02;103530.25;;;10.93;94.60
61119;BME280;51448;51.660;5.824;2023-02-13T11:54:35;103537.34;;;10.97;94.16
61119;BME280;51448;51.660;5.824;2023-02-13T12:00:00;103537.44;;;11.01;93.09
61119;BME280;51448;51.660;5.824;2023-02-13T12:02:52;103541.00;;;11.08;94.07
61119;BME280;51448;51.660;5.824;2023-02-13T12:05:23;103536.75;;;11.19;94.09
61119;BME280;51448;51.660;5.824;2023-02-13T12:07:57;103526.38;;;11.30;93.77
61119;BME280;51448;51.660;5.824;2023-02-13T12:10:30;103522.91;;;11.37;92.84
61119;BME280;51448;51.660;5.824;2023-02-13T12:13:05;103532.69;;;11.44;92.74
61119;BME280;51448;51.660;5.824;2023-02-13T12:15:42;103534.47;;;11.48;92.07
61119;BME280;51448;51.660;5.824;2023-02-13T12:18:25;103528.31;;;11.50;90.41
61119;BME280;51448;51.660;5.824;2023-02-13T12:21:03;103531.78;;;11.45;89.96
61119;BME280;51448;51.660;5.824;2023-02-13T12:23:52;103525.66;;;11.45;89.84
61119;BME280;51448;51.660;5.824;2023-02-13T12:26:43;103523.94;;;11.50;91.18
61119;BME280;51448;51.660;5.824;2023-02-13T12:32:38;103519.75;;;11.71;89.72
61119;BME280;51448;51.660;5.824;2023-02-13T12:41:01;103502.34;;;11.88;87.69
61119;BME280;51448;51.660;5.824;2023-02-13T12:47:12;103501.63;;;12.01;87.51
61119;BME280;51448;51.660;5.824;2023-02-13T12:49:48;103495.53;;;12.08;87.92
61119;BME280;51448;51.660;5.824;2023-02-13T13:07:39;103485.25;;;12.50;85.72
61119;BME280;51448;51.660;5.824;2023-02-13T13:13:25;103475.66;;;12.60;82.74
61119;BME280;51448;51.660;5.824;2023-02-13T13:16:15;103480.91;;;12.57;82.73
61119;BME280;51448;51.660;5.824;2023-02-13T13:19:09;103473.88;;;12.59;83.01
61119;BME280;51448;51.660;5.824;2023-02-13T13:26:54;103472.19;;;12.73;83.39
61119;BME280;51448;51.660;5.824;2023-02-13T13:32:44;103452.00;;;12.80;82.66
61119;BME280;51448;51.660;5.824;2023-02-13T13:35:19;103459.91;;;12.87;83.66
61119;BME280;51448;51.660;5.824;2023-02-13T13:37:53;103453.81;;;12.96;82.29
61119;BME280;51448;51.660;5.824;2023-02-13T13:40:48;103453.81;;;13.01;81.16
61119;BME280;51448;51.660;5.824;2023-02-13T13:46:43;103442.41;;;13.11;82.30
61119;BME280;51448;51.660;5.824;2023-02-13T13:49:37;103438.03;;;13.19;82.44
61119;BME280;51448;51.660;5.824;2023-02-13T13:52:39;103430.97;;;13.20;80.13
61119;BME280;51448;51.660;5.824;2023-02-13T14:03:45;103436.34;;;13.40;80.24
61119;BME280;51448;51.660;5.824;2023-02-13T14:07:14;103429.28;;;13.42;80.56
61119;BME280;51448;51.660;5.824;2023-02-13T14:11:55;103431.03;;;13.38;78.67
61119;BME280;51448;51.660;5.824;2023-02-13T14:16:55;103418.72;;;13.40;78.85
61119;BME280;51448;51.660;5.824;2023-02-13T14:19:28;103422.25;;;13.38;78.88
61119;BME280;51448;51.660;5.824;2023-02-13T14:27:23;103416.97;;;13.44;79.36
61119;BME280;51448;51.660;5.824;2023-02-13T14:30:21;103409.91;;;13.44;77.94
61119;BME280;51448;51.660;5.824;2023-02-13T14:33:04;103412.56;;;13.41;78.34
61119;BME280;51448;51.660;5.824;2023-02-13T14:35:36;103414.31;;;13.41;78.74
61119;BME280;51448;51.660;5.824;2023-02-13T14:38:06;103407.28;;;13.46;79.46
61119;BME280;51448;51.660;5.824;2023-02-13T14:40:51;103416.97;;;13.53;77.93
61119;BME280;51448;51.660;5.824;2023-02-13T14:43:27;103411.66;;;13.48;76.88
61119;BME280;51448;51.660;5.824;2023-02-13T14:46:06;103409.03;;;13.44;76.36
61119;BME280;51448;51.660;5.824;2023-02-13T14:51:35;103408.16;;;13.43;77.30
61119;BME280;51448;51.660;5.824;2023-02-13T14:57:29;103404.63;;;13.44;77.14
61119;BME280;51448;51.660;5.824;2023-02-13T15:00:07;103405.50;;;13.39;75.91
61119;BME280;51448;51.660;5.824;2023-02-13T15:02:52;103401.97;;;13.34;76.60
61119;BME280;51448;51.660;5.824;2023-02-13T15:05:30;103393.16;;;13.32;76.96
61119;BME280;51448;51.660;5.824;2023-02-13T15:10:44;103399.34;;;13.29;76.70
61119;BME280;51448;51.660;5.824;2023-02-13T15:13:19;103397.56;;;13.31;77.12
61119;BME280;51448;51.660;5.824;2023-02-13T15:16:13;103393.16;;;13.32;77.30
61119;BME280;51448;51.660;5.824;2023-02-13T15:18:45;103392.28;;;13.36;76.91
61119;BME280;51448;51.660;5.824;2023-02-13T15:21:22;103401.97;;;13.38;77.61
61119;BME280;51448;51.660;5.824;2023-02-13T15:23:54;103389.66;;;13.42;77.85
61119;BME280;51448;51.660;5.824;2023-02-13T15:26:24;103394.94;;;13.43;76.44
61119;BME280;51448;51.660;5.824;2023-02-13T15:31:31;103393.16;;;13.35;77.40
61119;BME280;51448;51.660;5.824;2023-02-13T15:34:00;103397.56;;;13.34;77.39
61119;BME280;51448;51.660;5.824;2023-02-13T15:36:39;103393.16;;;13.36;77.16
61119;BME280;51448;51.660;5.824;2023-02-13T15:39:15;103382.56;;;13.35;77.45
61119;BME280;51448;51.660;5.824;2023-02-13T15:41:48;103395.78;;;13.35;77.23
61119;BME280;51448;51.660;5.824;2023-02-13T15:44:22;103386.09;;;13.31;77.11
61119;BME280;51448;51.660;5.824;2023-02-13T15:47:02;103379.00;;;13.26;77.88
61119;BME280;51448;51.660;5.824;2023-02-13T15:49:38;103376.38;;;13.22;77.01
61119;BME280;51448;51.660;5.824;2023-02-13T15:52:30;103381.63;;;13.16;77.70
61119;BME280;51448;51.660;5.824;2023-02-13T15:55:01;103379.88;;;13.08;78.47